createdAt,value
2019-05-13T00:01:43.506Z,67.40
2019-05-13T00:04:14.096Z,67.60
2019-05-13T00:06:51.306Z,68.00
2019-05-13T00:09:14.120Z,68.20
2019-05-13T00:11:43.742Z,68.20
2019-05-13T00:14:13.380Z,68.40
2019-05-13T00:16:44.706Z,68.50
2019-05-13T00:19:14.268Z,68.60
2019-05-13T00:21:44.468Z,68.60
2019-05-13T00:24:13.830Z,68.60
2019-05-13T00:26:44.498Z,68.60
2019-05-13T00:29:14.188Z,68.70
2019-05-13T00:31:47.915Z,68.90
2019-05-13T00:34:16.390Z,69.00
2019-05-13T00:36:44.914Z,69.00
2019-05-13T00:39:15.362Z,69.20
2019-05-13T00:41:44.249Z,69.10
2019-05-13T00:44:14.239Z,69.10
2019-05-13T00:46:44.214Z,69.20
2019-05-13T00:49:13.407Z,69.30
2019-05-13T00:51:44.501Z,69.50
2019-05-13T00:54:13.273Z,69.50
2019-05-13T00:56:43.593Z,69.40
2019-05-13T00:59:14.160Z,69.30
2019-05-13T01:01:44.107Z,69.30
2019-05-13T01:04:14.311Z,69.20
2019-05-13T01:06:43.641Z,69.20
2019-05-13T01:09:14.398Z,69.40
2019-05-13T01:11:43.757Z,69.60
2019-05-13T01:14:14.392Z,69.80
2019-05-13T01:16:44.390Z,70.10
2019-05-13T01:19:14.370Z,70.30
2019-05-13T01:21:43.532Z,70.30
2019-05-13T01:24:14.496Z,70.50
2019-05-13T01:26:43.791Z,70.70
2019-05-13T01:29:13.475Z,70.70
2019-05-13T01:31:43.436Z,70.80
2019-05-13T01:34:14.271Z,71.00
2019-05-13T01:36:44.673Z,71.00
2019-05-13T01:39:13.843Z,71.00
2019-05-13T01:41:43.856Z,71.00
2019-05-13T01:44:13.972Z,70.90
2019-05-13T01:46:43.746Z,70.90
2019-05-13T01:49:13.685Z,70.90
2019-05-13T01:51:50.079Z,70.90
2019-05-13T01:54:24.466Z,70.90
2019-05-13T01:56:53.548Z,71.20
2019-05-13T01:59:23.912Z,71.20
2019-05-13T02:01:54.100Z,71.50
2019-05-13T02:04:24.426Z,71.60
2019-05-13T02:06:54.327Z,71.70
2019-05-13T02:09:24.418Z,71.90
2019-05-13T02:11:53.926Z,72.00
2019-05-13T02:14:23.710Z,72.00
2019-05-13T02:16:53.547Z,72.00
2019-05-13T02:19:24.315Z,72.10
2019-05-13T02:21:54.325Z,72.30
2019-05-13T02:24:23.659Z,72.30
2019-05-13T02:26:54.304Z,72.40
2019-05-13T02:29:24.537Z,72.50
2019-05-13T02:31:56.118Z,72.50
2019-05-13T02:34:23.422Z,72.50
2019-05-13T02:36:52.802Z,72.80
2019-05-13T02:39:22.266Z,72.90
2019-05-13T02:41:52.609Z,73.10
2019-05-13T02:44:22.549Z,73.40
2019-05-13T02:46:52.494Z,73.40
2019-05-13T02:49:23.192Z,73.50
2019-05-13T02:51:54.570Z,73.60
2019-05-13T02:54:26.766Z,73.40
2019-05-13T02:56:55.297Z,73.50
2019-05-13T02:59:23.788Z,73.60
2019-05-13T03:01:53.280Z,73.60
2019-05-13T03:04:23.404Z,73.60
2019-05-13T03:06:52.532Z,73.60
2019-05-13T03:09:22.990Z,73.70
2019-05-13T03:11:53.610Z,73.80
2019-05-13T03:14:23.872Z,73.80
2019-05-13T03:16:53.313Z,73.80
2019-05-13T03:19:22.588Z,74.00
2019-05-13T03:21:52.434Z,73.90
2019-05-13T03:24:23.072Z,74.10
2019-05-13T03:26:53.295Z,74.00
2019-05-13T03:29:22.397Z,74.10
2019-05-13T03:31:55.711Z,73.90
2019-05-13T03:34:26.361Z,73.80
2019-05-13T03:36:57.211Z,73.50
2019-05-13T03:39:23.124Z,73.50
2019-05-13T03:41:53.831Z,73.60
2019-05-13T03:44:23.976Z,73.70
2019-05-13T03:46:54.613Z,73.70
2019-05-13T03:49:26.188Z,73.80
2019-05-13T03:51:55.303Z,73.80
2019-05-13T03:54:23.846Z,73.80
2019-05-13T03:56:53.196Z,73.80
2019-05-13T03:59:22.651Z,73.80
2019-05-13T04:01:52.645Z,74.10
2019-05-13T04:04:23.448Z,74.10
2019-05-13T04:06:53.002Z,74.20
2019-05-13T04:09:30.670Z,74.20
2019-05-13T04:11:52.740Z,74.40
2019-05-13T04:14:22.965Z,74.20
2019-05-13T04:16:53.401Z,74.30
2019-05-13T04:19:23.446Z,74.30
2019-05-13T04:21:53.059Z,74.20
2019-05-13T04:24:22.907Z,74.10
2019-05-13T04:26:53.363Z,74.00
2019-05-13T04:29:23.476Z,74.30
2019-05-13T04:31:53.324Z,74.40
2019-05-13T04:34:23.150Z,74.50
2019-05-13T04:36:52.863Z,74.60
2019-05-13T04:39:39.663Z,74.50
2019-05-13T04:41:52.911Z,74.50
2019-05-13T04:44:23.974Z,74.60
2019-05-13T04:46:52.382Z,74.60
2019-05-13T04:49:23.229Z,74.60
2019-05-13T04:51:52.426Z,74.90
2019-05-13T04:54:22.769Z,75.30
2019-05-13T04:56:52.736Z,73.80
2019-05-13T04:59:22.797Z,71.20
2019-05-13T05:02:13.484Z,68.40
2019-05-13T05:04:54.277Z,66.80
2019-05-13T05:07:34.912Z,64.80
2019-05-13T05:10:33.773Z,62.60
2019-05-13T05:13:22.118Z,61.50
2019-05-13T05:16:22.832Z,61.10
2019-05-13T05:19:27.473Z,61.00
2019-05-13T05:22:18.691Z,60.30
2019-05-13T05:25:05.382Z,59.70
2019-05-13T05:27:42.810Z,59.80
2019-05-13T05:30:21.694Z,61.00
2019-05-13T05:33:07.678Z,62.00
2019-05-13T05:35:57.430Z,62.70
2019-05-13T05:38:54.325Z,63.20
2019-05-13T05:41:25.032Z,62.80
2019-05-13T05:43:55.520Z,61.50
2019-05-13T05:46:24.912Z,59.70
2019-05-13T05:48:55.308Z,58.00
2019-05-13T05:51:25.768Z,56.50
2019-05-13T05:53:57.583Z,55.50
2019-05-13T05:56:29.238Z,54.20
2019-05-13T05:59:02.555Z,53.00
2019-05-13T06:01:32.516Z,52.40
2019-05-13T06:04:01.527Z,51.70
2019-05-13T06:06:32.903Z,50.40
2019-05-13T06:09:01.899Z,50.50
2019-05-13T06:11:32.793Z,49.80
2019-05-13T06:14:02.384Z,50.10
2019-05-13T06:16:32.045Z,49.70
2019-05-13T06:19:01.529Z,48.00
2019-05-13T06:21:32.158Z,47.20
2019-05-13T06:24:02.763Z,46.40
2019-05-13T06:26:31.518Z,46.10
2019-05-13T06:29:02.549Z,45.00
2019-05-13T06:31:32.348Z,44.90
2019-05-13T06:34:02.032Z,45.10
2019-05-13T06:36:31.769Z,45.20
2019-05-13T06:39:02.239Z,44.80
2019-05-13T06:41:32.299Z,45.00
2019-05-13T06:44:02.157Z,46.40
2019-05-13T06:46:32.353Z,45.60
2019-05-13T06:49:02.900Z,45.60
2019-05-13T06:51:31.470Z,44.40
2019-05-13T06:54:02.373Z,43.30
2019-05-13T06:56:32.280Z,43.60
2019-05-13T06:59:01.564Z,43.40
2019-05-13T07:01:32.266Z,43.20
2019-05-13T07:04:02.401Z,43.30
2019-05-13T07:06:32.360Z,42.80
2019-05-13T07:09:01.524Z,43.40
2019-05-13T07:11:31.417Z,43.90
2019-05-13T07:14:02.460Z,43.00
2019-05-13T07:16:31.719Z,41.90
2019-05-13T07:19:02.618Z,40.80
2019-05-13T07:21:32.343Z,41.10
2019-05-13T07:24:02.222Z,41.10
2019-05-13T07:26:31.595Z,41.00
2019-05-13T07:29:20.299Z,41.00
2019-05-13T07:31:52.057Z,40.60
2019-05-13T07:34:24.127Z,39.70
2019-05-13T07:36:51.274Z,39.20
2019-05-13T07:39:22.325Z,39.70
2019-05-13T07:41:52.061Z,38.80
2019-05-13T07:44:22.347Z,38.60
2019-05-13T07:46:52.335Z,38.70
2019-05-13T07:49:22.541Z,39.20
2019-05-13T07:51:52.119Z,38.60
2019-05-13T07:54:22.146Z,36.60
2019-05-13T07:56:52.334Z,35.50
2019-05-13T07:59:21.255Z,35.00
2019-05-13T08:01:52.158Z,35.30
2019-05-13T08:04:23.689Z,35.60
2019-05-13T08:06:52.407Z,34.20
2019-05-13T08:09:21.623Z,34.70
2019-05-13T08:12:02.340Z,34.60
2019-05-13T08:14:21.799Z,35.20
2019-05-13T08:16:51.796Z,35.60
2019-05-13T08:19:21.816Z,36.00
2019-05-13T08:21:51.366Z,36.80
2019-05-13T08:24:22.696Z,36.90
2019-05-13T08:26:53.066Z,36.40
2019-05-13T08:29:21.616Z,35.90
2019-05-13T08:31:51.801Z,35.10
2019-05-13T08:34:25.305Z,34.50
2019-05-13T08:37:03.424Z,34.00
2019-05-13T08:39:38.638Z,33.60
2019-05-13T08:42:15.644Z,34.50
2019-05-13T08:44:37.738Z,33.40
2019-05-13T08:47:12.053Z,32.60
2019-05-13T08:49:41.447Z,32.20
2019-05-13T08:52:12.078Z,32.30
2019-05-13T08:54:41.761Z,32.70
2019-05-13T08:57:11.787Z,33.50
2019-05-13T08:59:42.177Z,33.70
2019-05-13T09:02:14.153Z,33.80
2019-05-13T09:04:42.674Z,33.20
2019-05-13T09:07:12.174Z,32.70
2019-05-13T09:09:41.982Z,32.90
2019-05-13T09:12:11.616Z,34.70
2019-05-13T09:14:46.329Z,34.40
2019-05-13T09:17:15.913Z,33.80
2019-05-13T09:19:44.443Z,34.20
2019-05-13T09:22:12.965Z,34.50
2019-05-13T09:24:42.474Z,35.70
2019-05-13T09:27:12.164Z,36.10
2019-05-13T09:29:42.755Z,36.10
2019-05-13T09:32:12.107Z,36.70
2019-05-13T09:34:42.245Z,37.20
2019-05-13T09:37:11.865Z,38.00
2019-05-13T09:39:41.554Z,38.40
2019-05-13T09:42:12.698Z,38.50
2019-05-13T09:44:41.970Z,38.10
2019-05-13T09:47:12.412Z,37.80
2019-05-13T09:49:42.031Z,37.80
2019-05-13T09:52:12.027Z,37.80
2019-05-13T09:54:42.479Z,37.40
2019-05-13T09:57:12.132Z,37.10
2019-05-13T09:59:42.189Z,37.80
2019-05-13T10:02:12.490Z,38.00
2019-05-13T10:04:43.609Z,38.50
2019-05-13T10:07:12.455Z,37.10
2019-05-13T10:09:42.895Z,36.80
2019-05-13T10:12:12.374Z,37.40
2019-05-13T10:14:41.870Z,36.40
2019-05-13T10:17:12.768Z,36.60
2019-05-13T10:19:42.067Z,36.20
2019-05-13T10:22:12.032Z,37.00
2019-05-13T10:24:42.226Z,36.40
2019-05-13T10:27:12.687Z,36.30
2019-05-13T10:29:42.495Z,35.80
2019-05-13T10:32:11.538Z,35.20
2019-05-13T10:34:42.573Z,35.60
2019-05-13T10:37:11.563Z,35.30
2019-05-13T10:39:40.415Z,35.70
2019-05-13T10:42:11.816Z,35.60
2019-05-13T10:44:39.080Z,35.70
2019-05-13T10:47:07.650Z,34.90
2019-05-13T10:49:36.187Z,34.80
2019-05-13T10:52:04.798Z,34.50
2019-05-13T10:54:33.278Z,34.90
2019-05-13T10:57:04.056Z,34.80
2019-05-13T10:59:32.458Z,34.60
2019-05-13T11:02:02.174Z,35.30
2019-05-13T11:04:32.692Z,35.10
2019-05-13T11:07:03.046Z,35.60
2019-05-13T11:09:32.679Z,35.60
2019-05-13T11:12:02.180Z,34.90
2019-05-13T11:14:32.379Z,35.10
2019-05-13T11:17:01.765Z,35.00
2019-05-13T11:19:36.111Z,35.20
2019-05-13T11:22:02.741Z,35.20
2019-05-13T11:24:32.418Z,36.00
2019-05-13T11:27:02.800Z,35.60
2019-05-13T11:29:32.540Z,35.40
2019-05-13T11:32:02.741Z,35.00
2019-05-13T11:34:32.925Z,35.40
2019-05-13T11:37:03.614Z,35.40
2019-05-13T11:39:32.751Z,35.10
2019-05-13T11:42:02.391Z,34.80
2019-05-13T11:44:32.319Z,35.00
2019-05-13T11:47:02.351Z,35.20
2019-05-13T11:49:31.732Z,34.80
2019-05-13T11:52:02.783Z,35.20
2019-05-13T11:54:30.829Z,35.30
2019-05-13T11:57:04.043Z,35.40
2019-05-13T11:59:32.679Z,35.70
2019-05-13T12:02:04.626Z,35.30
2019-05-13T12:04:34.359Z,35.30
2019-05-13T12:07:03.605Z,34.80
2019-05-13T12:09:32.022Z,34.70
2019-05-13T12:12:03.195Z,34.90
2019-05-13T12:14:44.175Z,35.60
2019-05-13T12:17:02.306Z,35.10
2019-05-13T12:19:32.011Z,34.80
2019-05-13T12:22:02.744Z,35.50
2019-05-13T12:24:30.724Z,35.30
2019-05-13T12:26:59.289Z,34.70
2019-05-13T12:29:27.813Z,34.40
2019-05-13T12:31:56.781Z,34.10
2019-05-13T12:34:25.344Z,34.10
2019-05-13T12:36:53.841Z,34.40
2019-05-13T12:39:23.897Z,34.20
2019-05-13T12:41:53.904Z,33.20
2019-05-13T12:44:23.288Z,33.80
2019-05-13T12:46:54.210Z,34.40
2019-05-13T12:49:22.612Z,33.50
2019-05-13T12:51:51.665Z,33.50
2019-05-13T12:54:23.441Z,33.30
2019-05-13T12:56:56.514Z,33.40
2019-05-13T12:59:28.223Z,34.00
2019-05-13T13:01:58.462Z,33.80
2019-05-13T13:04:33.635Z,33.10
2019-05-13T13:07:01.431Z,33.00
2019-05-13T13:09:32.579Z,32.60
2019-05-13T13:12:00.362Z,32.90
2019-05-13T13:14:36.336Z,33.00
2019-05-13T13:17:03.450Z,33.30
2019-05-13T13:19:41.190Z,34.20
2019-05-13T13:22:18.417Z,33.50
2019-05-13T13:24:57.301Z,33.80
2019-05-13T13:30:02.838Z,33.50
2019-05-13T13:32:25.287Z,33.30
2019-05-13T13:34:55.049Z,33.60
2019-05-13T13:37:24.112Z,33.20
2019-05-13T13:39:55.223Z,33.20
2019-05-13T13:42:22.938Z,32.90
2019-05-13T13:44:53.712Z,33.20
2019-05-13T13:47:24.238Z,33.60
2019-05-13T13:49:53.150Z,34.10
2019-05-13T13:52:22.797Z,34.20
2019-05-13T13:55:01.990Z,33.60
2019-05-13T13:57:25.628Z,33.70
2019-05-13T14:02:36.540Z,33.60
2019-05-13T14:05:05.984Z,33.70
2019-05-13T14:07:09.443Z,33.60
2019-05-13T14:07:13.615Z,33.20
2019-05-13T14:07:42.597Z,33.90
2019-05-13T14:10:11.916Z,33.70
2019-05-13T14:12:41.711Z,33.90
2019-05-13T14:15:11.259Z,34.10
2019-05-13T14:17:41.533Z,34.70
2019-05-13T14:20:10.818Z,34.50
2019-05-13T14:22:41.766Z,34.70
2019-05-13T14:25:11.545Z,34.60
2019-05-13T14:27:42.027Z,34.70
2019-05-13T14:30:11.858Z,34.70
2019-05-13T14:32:42.418Z,34.50
2019-05-13T14:35:12.288Z,34.80
2019-05-13T14:37:40.956Z,34.90
2019-05-13T14:40:12.121Z,34.40
2019-05-13T14:42:42.647Z,34.50
2019-05-13T14:45:12.328Z,34.60
2019-05-13T14:47:41.045Z,34.40
2019-05-13T14:50:12.186Z,33.90
2019-05-13T14:52:41.621Z,34.20
2019-05-13T14:55:11.565Z,34.50
2019-05-13T14:57:47.858Z,34.30
2019-05-13T15:00:25.067Z,34.60
2019-05-13T15:02:57.671Z,34.50
2019-05-13T15:05:44.603Z,34.20
2019-05-13T15:08:14.778Z,34.40
2019-05-13T15:10:43.645Z,34.30
2019-05-13T15:13:16.603Z,34.70
2019-05-13T15:15:48.267Z,34.70
2019-05-13T15:18:16.906Z,34.60
2019-05-13T15:20:47.112Z,34.60
2019-05-13T15:23:22.190Z,34.80
2019-05-13T15:25:53.617Z,34.80
2019-05-13T15:28:31.600Z,35.10
2019-05-13T15:31:00.326Z,34.80
2019-05-13T15:33:36.012Z,34.80
2019-05-13T15:36:13.697Z,34.60
2019-05-13T15:38:42.495Z,34.70
2019-05-13T15:41:17.604Z,34.80
2019-05-13T15:43:51.865Z,34.90
2019-05-13T15:46:28.162Z,35.10
2019-05-13T15:48:58.578Z,35.00
2019-05-13T15:51:31.458Z,35.10
2019-05-13T15:54:04.072Z,35.40
2019-05-13T15:56:32.927Z,35.50
2019-05-13T15:59:01.956Z,35.60
2019-05-13T16:01:30.695Z,35.90
2019-05-13T16:04:02.080Z,36.10
2019-05-13T16:06:32.035Z,36.50
2019-05-13T16:08:59.943Z,37.10
2019-05-13T16:11:32.286Z,37.30
2019-05-13T16:14:02.109Z,37.10
2019-05-13T16:16:32.281Z,37.30
2019-05-13T16:19:01.374Z,37.40
2019-05-13T16:21:31.977Z,37.40
2019-05-13T16:24:02.564Z,37.50
2019-05-13T16:26:31.880Z,37.70
2019-05-13T16:29:02.118Z,37.90
2019-05-13T16:31:31.821Z,38.20
2019-05-13T16:34:01.601Z,38.20
2019-05-13T16:36:31.318Z,38.30
2019-05-13T16:39:02.158Z,38.50
2019-05-13T16:41:31.599Z,38.90
2019-05-13T16:44:00.351Z,39.20
2019-05-13T16:46:28.845Z,38.90
2019-05-13T16:48:57.394Z,39.00
2019-05-13T16:51:25.940Z,39.20
2019-05-13T16:53:54.500Z,39.50
2019-05-13T16:56:29.805Z,39.60
2019-05-13T16:59:01.618Z,39.90
2019-05-13T17:01:25.597Z,40.00
2019-05-13T17:03:54.307Z,40.10
2019-05-13T17:06:22.951Z,40.20
2019-05-13T17:08:52.947Z,40.50
2019-05-13T17:11:26.512Z,40.70
2019-05-13T17:13:55.006Z,41.10
2019-05-13T17:16:23.491Z,40.70
2019-05-13T17:18:55.453Z,40.50
2019-05-13T17:21:31.682Z,40.80
2019-05-13T17:24:07.292Z,41.00
2019-05-13T17:26:35.856Z,41.30
2019-05-13T17:29:04.887Z,41.30
2019-05-13T17:31:33.389Z,41.60
2019-05-13T17:34:01.873Z,41.90
2019-05-13T17:36:32.429Z,42.90
2019-05-13T17:39:01.852Z,42.30
2019-05-13T17:41:32.092Z,42.50
2019-05-13T17:44:02.470Z,43.60
2019-05-13T17:46:32.612Z,43.00
2019-05-13T17:49:01.578Z,42.90
2019-05-13T17:51:30.082Z,43.00
2019-05-13T17:54:01.248Z,43.30
2019-05-13T17:56:32.231Z,43.40
2019-05-13T17:58:59.426Z,43.60
2019-05-13T18:01:27.931Z,44.10
2019-05-13T18:03:56.401Z,43.80
2019-05-13T18:06:24.877Z,44.00
2019-05-13T18:08:54.603Z,44.10
2019-05-13T18:11:23.745Z,44.60
2019-05-13T18:13:52.374Z,44.80
2019-05-13T18:16:21.748Z,45.00
2019-05-13T18:18:52.146Z,45.30
2019-05-13T18:21:20.934Z,45.40
2019-05-13T18:23:51.979Z,45.50
2019-05-13T18:26:21.474Z,45.70
2019-05-13T18:28:51.507Z,45.90
2019-05-13T18:31:20.087Z,45.90
2019-05-13T18:33:52.523Z,46.10
2019-05-13T18:36:22.257Z,46.40
2019-05-13T18:38:51.050Z,46.10
2019-05-13T18:41:21.369Z,46.40
2019-05-13T18:43:52.828Z,47.00
2019-05-13T18:46:21.708Z,47.40
2019-05-13T18:48:58.672Z,47.60
2019-05-13T18:51:25.091Z,47.80
2019-05-13T18:53:53.660Z,48.30
2019-05-13T18:56:22.336Z,48.40
2019-05-13T18:58:50.880Z,48.80
2019-05-13T19:01:21.441Z,48.80
2019-05-13T19:03:49.575Z,49.10
2019-05-13T19:06:18.108Z,49.50
2019-05-13T19:08:46.571Z,49.60
2019-05-13T19:11:15.186Z,49.80
2019-05-13T19:13:43.673Z,50.00
2019-05-13T19:16:12.235Z,50.20
2019-05-13T19:18:42.330Z,50.40
2019-05-13T19:21:11.050Z,50.60
2019-05-13T19:23:41.781Z,52.10
2019-05-13T19:26:11.248Z,51.00
2019-05-13T19:28:40.088Z,51.00
2019-05-13T19:31:08.629Z,50.90
2019-05-13T19:33:37.094Z,51.30
2019-05-13T19:36:05.581Z,51.30
2019-05-13T19:38:34.060Z,51.40
2019-05-13T19:41:02.514Z,51.70
2019-05-13T19:43:31.552Z,51.70
2019-05-13T19:46:01.524Z,51.80
2019-05-13T19:48:32.553Z,51.80
2019-05-13T19:51:03.868Z,52.10
2019-05-13T19:53:34.626Z,52.00
2019-05-13T19:56:03.108Z,52.10
2019-05-13T19:58:32.429Z,52.30
2019-05-13T20:01:01.376Z,52.30
2019-05-13T20:03:31.777Z,52.60
2019-05-13T20:06:04.959Z,52.70
2019-05-13T20:08:33.468Z,53.00
2019-05-13T20:11:02.353Z,53.20
2019-05-13T20:13:30.859Z,53.30
2019-05-13T20:16:01.338Z,53.70
2019-05-13T20:18:31.990Z,53.80
2019-05-13T20:21:01.245Z,53.80
2019-05-13T20:23:32.030Z,53.90
2019-05-13T20:26:01.075Z,54.00
2019-05-13T20:28:31.592Z,53.90
2019-05-13T20:31:01.783Z,54.10
2019-05-13T20:33:31.969Z,54.20
2019-05-13T20:36:01.608Z,54.30
2019-05-13T20:38:31.681Z,54.40
2019-05-13T20:41:01.304Z,54.90
2019-05-13T20:43:32.854Z,54.70
2019-05-13T20:46:02.081Z,54.90
2019-05-13T20:48:32.050Z,54.80
2019-05-13T20:51:02.520Z,54.90
2019-05-13T20:53:33.027Z,55.10
2019-05-13T20:56:01.863Z,55.10
2019-05-13T20:58:31.903Z,55.20
2019-05-13T21:01:02.307Z,55.20
2019-05-13T21:03:31.554Z,55.30
2019-05-13T21:06:00.604Z,55.40
2019-05-13T21:08:31.909Z,55.40
2019-05-13T21:11:02.078Z,55.40
2019-05-13T21:13:31.797Z,55.70
2019-05-13T21:16:21.760Z,55.60
2019-05-13T21:18:50.038Z,55.60
2019-05-13T21:21:18.623Z,55.70
2019-05-13T21:23:47.096Z,55.90
2019-05-13T21:26:15.844Z,56.00
2019-05-13T21:28:44.541Z,56.00
2019-05-13T21:31:13.008Z,56.10
2019-05-13T21:33:41.678Z,56.10
2019-05-13T21:36:12.279Z,56.10
2019-05-13T21:38:40.893Z,56.10
2019-05-13T21:41:11.617Z,56.20
2019-05-13T21:43:41.372Z,56.10
2019-05-13T21:46:11.907Z,56.20
2019-05-13T21:48:41.631Z,56.30
2019-05-13T21:51:13.198Z,56.40
2019-05-13T21:53:41.370Z,56.60
2019-05-13T21:56:12.179Z,56.50
2019-05-13T21:58:41.621Z,56.40
2019-05-13T22:01:10.805Z,56.40
2019-05-13T22:03:39.286Z,56.40
2019-05-13T22:06:08.112Z,56.40
2019-05-13T22:08:36.642Z,56.50
2019-05-13T22:11:05.130Z,56.40
2019-05-13T22:13:33.615Z,56.30
2019-05-13T22:16:02.090Z,56.40
2019-05-13T22:18:31.454Z,56.50
2019-05-13T22:21:01.685Z,56.50
2019-05-13T22:23:32.064Z,56.50
2019-05-13T22:26:01.653Z,57.20
2019-05-13T22:28:31.351Z,56.60
2019-05-13T22:31:01.302Z,56.90
2019-05-13T22:33:32.175Z,56.60
2019-05-13T22:36:01.617Z,56.40
2019-05-13T22:38:32.279Z,56.30
2019-05-13T22:41:01.220Z,56.40
2019-05-13T22:43:32.118Z,56.50
2019-05-13T22:46:00.325Z,56.60
2019-05-13T22:48:31.530Z,56.60
2019-05-13T22:51:01.177Z,56.40
2019-05-13T22:53:31.599Z,56.20
2019-05-13T22:56:00.283Z,56.20
2019-05-13T22:58:28.742Z,56.30
2019-05-13T23:00:57.284Z,56.30
2019-05-13T23:03:32.344Z,57.00
2019-05-13T23:06:03.750Z,56.20
2019-05-13T23:08:32.596Z,56.20
2019-05-13T23:11:02.047Z,56.40
2019-05-13T23:13:31.381Z,56.50
2019-05-13T23:16:02.126Z,56.50
2019-05-13T23:18:31.610Z,56.60
2019-05-13T23:21:02.361Z,56.80
2019-05-13T23:23:30.961Z,56.90
2019-05-13T23:25:59.506Z,57.10
2019-05-13T23:28:27.973Z,57.30
2019-05-13T23:30:56.450Z,57.30
2019-05-13T23:33:25.311Z,57.80
2019-05-13T23:35:53.778Z,58.00
2019-05-13T23:38:22.252Z,58.30
2019-05-13T23:40:51.551Z,58.50
2019-05-13T23:43:21.684Z,58.90
2019-05-13T23:45:51.230Z,58.90
2019-05-13T23:48:21.653Z,58.90
2019-05-13T23:50:52.164Z,58.70
2019-05-13T23:53:21.813Z,58.60
2019-05-13T23:55:52.044Z,58.60
2019-05-13T23:58:21.696Z,58.80
